createdAt,value
2019-05-05T00:01:39.202Z,77.30
2019-05-05T00:04:12.497Z,77.00
2019-05-05T00:06:44.457Z,78.60
2019-05-05T00:09:14.645Z,80.90
2019-05-05T00:11:47.825Z,81.80
2019-05-05T00:14:21.199Z,82.50
2019-05-05T00:16:54.723Z,85.20
2019-05-05T00:19:32.504Z,86.10
2019-05-05T00:21:55.140Z,83.70
2019-05-05T00:24:24.462Z,85.40
2019-05-05T00:26:55.168Z,86.40
2019-05-05T00:29:25.326Z,87.30
2019-05-05T00:31:54.789Z,88.70
2019-05-05T00:34:24.466Z,84.00
2019-05-05T00:36:55.195Z,81.50
2019-05-05T00:39:25.485Z,79.80
2019-05-05T00:41:55.453Z,80.10
2019-05-05T00:44:24.781Z,79.20
2019-05-05T00:46:55.473Z,78.50
2019-05-05T00:49:26.318Z,80.40
2019-05-05T00:51:55.530Z,80.70
2019-05-05T00:54:27.522Z,81.90
2019-05-05T00:56:56.478Z,81.30
2019-05-05T00:59:27.066Z,83.30
2019-05-05T01:02:15.067Z,83.90
2019-05-05T01:05:04.384Z,84.60
2019-05-05T01:07:34.938Z,83.60
2019-05-05T01:10:04.932Z,80.00
2019-05-05T01:12:34.874Z,79.60
2019-05-05T01:15:04.634Z,80.30
2019-05-05T01:17:34.555Z,81.40
2019-05-05T01:20:06.947Z,78.90
2019-05-05T01:22:36.038Z,80.80
2019-05-05T01:25:06.853Z,79.50
2019-05-05T01:27:35.853Z,77.60
2019-05-05T01:30:08.007Z,76.20
2019-05-05T01:32:38.529Z,75.30
2019-05-05T01:35:07.656Z,75.50
2019-05-05T01:37:38.123Z,76.50
2019-05-05T01:40:25.527Z,77.20
2019-05-05T01:42:54.785Z,79.10
2019-05-05T01:45:24.211Z,82.00
2019-05-05T01:47:54.540Z,81.00
2019-05-05T01:50:24.825Z,82.10
2019-05-05T01:52:55.570Z,82.40
2019-05-05T01:55:26.438Z,84.50
2019-05-05T01:57:55.469Z,85.10
2019-05-05T02:00:25.384Z,86.00
2019-05-05T02:02:55.338Z,87.00
2019-05-05T02:05:24.515Z,87.00
2019-05-05T02:07:55.291Z,85.00
2019-05-05T02:10:25.429Z,86.90
2019-05-05T02:12:55.189Z,88.70
2019-05-05T02:15:25.058Z,88.30
2019-05-05T02:17:55.057Z,90.00
2019-05-05T02:20:45.518Z,88.70
2019-05-05T02:23:15.979Z,86.40
2019-05-05T02:25:44.922Z,87.20
2019-05-05T02:28:15.068Z,88.70
2019-05-05T02:30:48.178Z,88.50
2019-05-05T02:33:18.792Z,90.60
2019-05-05T02:35:47.709Z,89.90
2019-05-05T02:38:17.740Z,89.30
2019-05-05T02:40:48.654Z,85.30
2019-05-05T02:43:19.428Z,83.20
2019-05-05T02:46:17.897Z,81.10
2019-05-05T02:48:50.342Z,81.00
2019-05-05T02:51:20.703Z,80.00
2019-05-05T02:53:53.695Z,81.00
2019-05-05T02:56:27.502Z,81.80
2019-05-05T02:58:59.876Z,80.00
2019-05-05T03:01:40.607Z,78.50
2019-05-05T03:04:10.135Z,81.30
2019-05-05T03:06:43.629Z,78.30
2019-05-05T03:09:13.879Z,80.00
2019-05-05T03:11:45.732Z,78.20
2019-05-05T03:14:17.277Z,75.90
2019-05-05T03:16:46.196Z,75.70
2019-05-05T03:19:15.054Z,74.20
2019-05-05T03:21:44.218Z,76.70
2019-05-05T03:24:14.339Z,77.50
2019-05-05T03:26:44.461Z,79.00
2019-05-05T03:29:15.017Z,76.10
2019-05-05T03:31:45.801Z,74.70
2019-05-05T03:34:16.627Z,74.20
2019-05-05T03:36:46.445Z,72.60
2019-05-05T03:39:26.210Z,72.30
2019-05-05T03:41:58.269Z,69.50
2019-05-05T03:44:40.847Z,69.20
2019-05-05T03:47:10.175Z,68.90
2019-05-05T03:49:39.025Z,69.20
2019-05-05T03:52:07.938Z,69.20
2019-05-05T03:54:36.980Z,68.10
2019-05-05T03:57:08.579Z,66.90
2019-05-05T03:59:44.503Z,65.20
2019-05-05T04:02:23.337Z,68.50
2019-05-05T04:04:54.948Z,66.90
2019-05-05T04:07:24.302Z,68.70
2019-05-05T04:09:54.222Z,66.20
2019-05-05T04:12:24.201Z,67.00
2019-05-05T04:14:54.607Z,67.70
2019-05-05T04:17:34.241Z,66.10
2019-05-05T04:20:20.004Z,70.20
2019-05-05T04:25:54.404Z,70.20
2019-05-05T04:28:24.063Z,69.40
2019-05-05T04:30:53.662Z,68.40
2019-05-05T04:33:23.621Z,67.30
2019-05-05T04:35:54.367Z,65.90
2019-05-05T04:38:24.339Z,67.70
2019-05-05T04:40:54.195Z,65.20
2019-05-05T04:43:24.640Z,65.10
2019-05-05T04:45:54.152Z,69.10
2019-05-05T04:48:24.629Z,70.60
2019-05-05T04:50:55.089Z,70.90
2019-05-05T04:53:28.252Z,72.50
2019-05-05T04:55:57.110Z,71.40
2019-05-05T04:58:25.922Z,72.50
2019-05-05T05:00:54.811Z,72.30
2019-05-05T05:03:37.161Z,73.40
2019-05-05T05:06:07.640Z,69.50
2019-05-05T05:08:36.476Z,67.20
2019-05-05T05:11:05.319Z,65.30
2019-05-05T05:13:34.742Z,61.00
2019-05-05T05:16:04.520Z,63.60
2019-05-05T05:18:34.382Z,59.80
2019-05-05T05:21:04.048Z,59.00
2019-05-05T05:23:34.029Z,62.50
2019-05-05T05:26:05.060Z,62.80
2019-05-05T05:28:34.225Z,68.00
2019-05-05T05:31:03.866Z,68.00
2019-05-05T05:33:38.833Z,73.20
2019-05-05T05:36:06.807Z,66.90
2019-05-05T05:38:35.663Z,70.40
2019-05-05T05:41:06.164Z,74.30
2019-05-05T05:43:54.837Z,81.20
2019-05-05T05:46:43.813Z,82.50
2019-05-05T05:49:16.787Z,82.80
2019-05-05T05:51:45.555Z,84.00
2019-05-05T05:54:14.281Z,84.70
2019-05-05T05:56:44.681Z,86.30
2019-05-05T05:59:14.708Z,85.30
2019-05-05T06:01:43.918Z,86.80
2019-05-05T06:04:14.389Z,86.70
2019-05-05T06:06:43.870Z,84.30
2019-05-05T06:09:14.665Z,85.90
2019-05-05T06:11:43.683Z,81.80
2019-05-05T06:14:14.665Z,82.50
2019-05-05T06:16:44.659Z,82.50
2019-05-05T06:19:14.098Z,79.00
2019-05-05T06:21:43.982Z,75.30
2019-05-05T06:24:13.619Z,78.80
2019-05-05T06:26:44.569Z,76.60
2019-05-05T06:29:14.579Z,75.60
2019-05-05T06:31:44.769Z,72.30
2019-05-05T06:34:14.013Z,70.70
2019-05-05T06:36:44.507Z,70.60
2019-05-05T06:39:13.702Z,73.80
2019-05-05T06:41:44.394Z,73.00
2019-05-05T06:44:17.535Z,71.10
2019-05-05T06:47:04.789Z,70.70
2019-05-05T06:49:34.497Z,72.90
2019-05-05T06:52:04.198Z,70.40
2019-05-05T06:54:34.873Z,72.80
2019-05-05T06:57:04.473Z,73.90
2019-05-05T06:59:34.999Z,71.90
2019-05-05T07:02:04.356Z,68.30
2019-05-05T07:04:34.010Z,70.40
2019-05-05T07:07:04.920Z,70.60
2019-05-05T07:09:33.740Z,68.00
2019-05-05T07:12:04.516Z,67.50
2019-05-05T07:14:34.016Z,67.10
2019-05-05T07:17:05.108Z,69.30
2019-05-05T07:19:34.462Z,68.50
2019-05-05T07:22:04.068Z,70.90
2019-05-05T07:24:34.407Z,69.40
2019-05-05T07:27:04.808Z,69.30
2019-05-05T07:29:34.346Z,70.90
2019-05-05T07:32:03.955Z,71.00
2019-05-05T07:34:50.800Z,71.00
2019-05-05T07:37:19.729Z,69.70
2019-05-05T07:39:48.611Z,70.10
2019-05-05T07:42:18.804Z,69.30
2019-05-05T07:44:47.632Z,70.00
2019-05-05T07:47:16.827Z,67.30
2019-05-05T07:49:45.710Z,68.10
2019-05-05T07:52:15.137Z,69.30
2019-05-05T07:54:44.058Z,66.60
2019-05-05T07:57:14.646Z,66.90
2019-05-05T07:59:44.881Z,64.80
2019-05-05T08:02:14.572Z,63.80
2019-05-05T08:04:43.823Z,64.00
2019-05-05T08:07:14.738Z,65.70
2019-05-05T08:09:44.591Z,64.50
2019-05-05T08:12:13.853Z,61.90
2019-05-05T08:14:44.454Z,61.40
2019-05-05T08:17:31.234Z,61.50
2019-05-05T08:20:25.378Z,64.60
2019-05-05T08:22:54.211Z,62.20
2019-05-05T08:25:39.873Z,62.40
2019-05-05T08:28:08.149Z,67.00
2019-05-05T08:30:38.651Z,63.60
2019-05-05T08:33:07.470Z,63.50
2019-05-05T08:35:36.369Z,63.10
2019-05-05T08:38:05.192Z,66.60
2019-05-05T08:40:34.591Z,64.70
2019-05-05T08:43:04.608Z,63.30
2019-05-05T08:45:34.912Z,68.80
2019-05-05T08:48:05.774Z,67.20
2019-05-05T08:50:34.934Z,66.10
2019-05-05T08:53:04.866Z,69.30
2019-05-05T08:55:34.708Z,67.40
2019-05-05T08:58:04.551Z,72.10
2019-05-05T09:00:33.996Z,71.70
2019-05-05T09:03:03.759Z,69.90
2019-05-05T09:05:34.311Z,63.40
2019-05-05T09:08:04.579Z,62.90
2019-05-05T09:10:34.240Z,66.80
2019-05-05T09:13:04.013Z,64.80
2019-05-05T09:15:33.663Z,66.30
2019-05-05T09:18:04.844Z,68.70
2019-05-05T09:20:34.770Z,67.20
2019-05-05T09:23:04.288Z,71.50
2019-05-05T09:25:40.481Z,63.30
2019-05-05T09:28:19.838Z,69.80
2019-05-05T09:30:50.379Z,67.90
2019-05-05T09:33:19.193Z,60.00
2019-05-05T09:35:48.632Z,61.90
2019-05-05T09:38:18.064Z,64.20
2019-05-05T09:40:46.919Z,63.70
2019-05-05T09:43:15.758Z,61.20
2019-05-05T09:45:44.639Z,62.30
2019-05-05T09:48:14.672Z,61.90
2019-05-05T09:50:43.846Z,57.40
2019-05-05T09:53:14.582Z,57.90
2019-05-05T09:55:44.300Z,56.90
2019-05-05T09:58:13.823Z,54.60
2019-05-05T10:00:44.502Z,60.40
2019-05-05T10:03:14.581Z,54.60
2019-05-05T10:05:44.543Z,58.00
2019-05-05T10:08:14.292Z,59.50
2019-05-05T10:10:44.211Z,58.30
2019-05-05T10:13:14.954Z,57.80
2019-05-05T10:15:44.320Z,58.30
2019-05-05T10:18:14.062Z,59.40
2019-05-05T10:20:43.219Z,58.20
2019-05-05T10:23:14.128Z,57.30
2019-05-05T10:25:49.562Z,51.50
2019-05-05T10:28:18.388Z,55.60
2019-05-05T10:30:47.294Z,58.70
2019-05-05T10:33:16.121Z,57.80
2019-05-05T10:35:44.954Z,57.60
2019-05-05T10:38:14.251Z,55.60
2019-05-05T10:40:44.679Z,56.10
2019-05-05T10:43:14.822Z,55.30
2019-05-05T10:45:44.155Z,52.50
2019-05-05T10:48:14.343Z,50.30
2019-05-05T10:50:44.460Z,55.40
2019-05-05T10:53:13.744Z,55.10
2019-05-05T10:55:44.825Z,53.30
2019-05-05T10:58:13.836Z,52.80
2019-05-05T11:00:48.553Z,53.70
2019-05-05T11:03:17.503Z,56.80
2019-05-05T11:05:46.330Z,55.30
2019-05-05T11:08:15.571Z,57.60
2019-05-05T11:10:45.121Z,55.90
2019-05-05T11:13:14.233Z,56.30
2019-05-05T11:15:44.338Z,57.70
2019-05-05T11:18:14.679Z,58.20
2019-05-05T11:20:45.044Z,55.20
2019-05-05T11:23:15.053Z,55.00
2019-05-05T11:25:44.537Z,50.80
2019-05-05T11:28:14.631Z,52.70
2019-05-05T11:30:46.330Z,54.10
2019-05-05T11:33:34.410Z,53.20
2019-05-05T11:36:10.727Z,54.50
2019-05-05T11:38:41.436Z,53.20
2019-05-05T11:41:09.977Z,54.00
2019-05-05T11:43:38.732Z,54.20
2019-05-05T11:46:07.642Z,53.60
2019-05-05T11:48:36.487Z,50.40
2019-05-05T11:51:05.314Z,52.30
2019-05-05T11:53:34.188Z,52.40
2019-05-05T11:56:04.232Z,51.40
2019-05-05T11:58:34.099Z,51.10
2019-05-05T12:01:03.845Z,53.50
2019-05-05T12:03:33.954Z,50.70
2019-05-05T12:06:04.024Z,54.40
2019-05-05T12:08:34.493Z,53.60
2019-05-05T12:11:04.932Z,50.50
2019-05-05T12:13:33.607Z,51.70
2019-05-05T12:16:04.620Z,51.90
2019-05-05T12:18:34.472Z,50.50
2019-05-05T12:21:05.223Z,52.20
2019-05-05T12:23:34.249Z,52.10
2019-05-05T12:26:17.048Z,51.10
2019-05-05T12:28:50.544Z,49.70
2019-05-05T12:31:24.735Z,50.00
2019-05-05T12:33:54.753Z,48.90
2019-05-05T12:36:23.992Z,53.40
2019-05-05T12:38:54.658Z,52.00
2019-05-05T12:41:23.833Z,52.90
2019-05-05T12:43:54.837Z,54.30
2019-05-05T12:46:37.301Z,50.30
2019-05-05T12:49:07.809Z,50.70
2019-05-05T12:51:36.618Z,52.90
2019-05-05T12:54:07.759Z,50.50
2019-05-05T12:56:37.263Z,54.20
2019-05-05T12:59:07.843Z,52.40
2019-05-05T13:01:41.333Z,49.40
2019-05-05T13:04:10.226Z,50.40
2019-05-05T13:06:39.181Z,53.40
2019-05-05T13:09:08.881Z,53.60
2019-05-05T13:11:37.727Z,53.10
2019-05-05T13:14:06.912Z,54.10
2019-05-05T13:16:35.738Z,54.50
2019-05-05T13:19:06.213Z,56.40
2019-05-05T13:21:45.763Z,56.50
2019-05-05T13:24:23.832Z,59.50
2019-05-05T13:26:54.247Z,58.40
2019-05-05T13:29:24.592Z,59.20
2019-05-05T13:31:54.418Z,62.60
2019-05-05T13:34:23.544Z,66.20
2019-05-05T13:36:52.415Z,68.80
2019-05-05T13:39:21.370Z,66.70
2019-05-05T13:41:50.247Z,66.50
2019-05-05T13:44:20.707Z,67.40
2019-05-05T13:46:49.552Z,70.20
2019-05-05T13:49:25.587Z,70.10
2019-05-05T13:51:54.412Z,75.90
2019-05-05T13:54:24.237Z,76.50
2019-05-05T13:56:53.250Z,80.50
2019-05-05T13:59:22.667Z,83.50
2019-05-05T14:01:51.504Z,84.70
2019-05-05T14:04:20.328Z,86.00
2019-05-05T14:06:49.894Z,87.70
2019-05-05T14:09:18.816Z,89.70
2019-05-05T14:11:47.633Z,90.70
2019-05-05T14:14:16.557Z,91.10
2019-05-05T14:16:45.408Z,89.60
2019-05-05T14:19:14.735Z,89.90
2019-05-05T14:21:44.643Z,87.70
2019-05-05T14:24:18.135Z,90.50
2019-05-05T14:26:46.977Z,90.20
2019-05-05T14:29:17.423Z,91.70
2019-05-05T14:31:46.179Z,91.50
2019-05-05T14:34:17.734Z,92.30
2019-05-05T14:36:48.206Z,87.80
2019-05-05T14:39:18.806Z,84.40
2019-05-05T14:41:47.736Z,84.80
2019-05-05T14:44:16.653Z,81.30
2019-05-05T14:46:45.688Z,83.80
2019-05-05T14:49:14.616Z,86.10
2019-05-05T14:51:44.749Z,84.80
2019-05-05T14:54:14.816Z,82.20
2019-05-05T14:56:44.203Z,82.60
2019-05-05T14:59:14.207Z,86.00
2019-05-05T15:01:44.739Z,83.50
2019-05-05T15:04:15.707Z,84.90
2019-05-05T15:06:46.176Z,84.10
2019-05-05T15:09:33.594Z,82.20
2019-05-05T15:12:14.334Z,83.10
2019-05-05T15:14:43.944Z,83.40
2019-05-05T15:17:14.119Z,83.30
2019-05-05T15:19:43.604Z,81.50
2019-05-05T15:22:14.862Z,78.60
2019-05-05T15:24:44.143Z,78.90
2019-05-05T15:27:13.235Z,79.50
2019-05-05T15:29:43.672Z,80.50
2019-05-05T15:32:14.783Z,82.30
2019-05-05T15:34:43.881Z,85.20
2019-05-05T15:37:14.448Z,85.00
2019-05-05T15:39:44.167Z,83.40
2019-05-05T15:42:13.321Z,84.50
2019-05-05T15:44:43.779Z,86.80
2019-05-05T15:47:12.621Z,89.50
2019-05-05T15:49:41.451Z,90.40
2019-05-05T15:52:10.324Z,91.00
2019-05-05T15:54:39.296Z,91.00
2019-05-05T15:57:09.609Z,90.80
2019-05-05T15:59:38.687Z,91.00
2019-05-05T16:02:07.615Z,91.00
2019-05-05T16:04:36.453Z,90.90
2019-05-05T16:07:05.373Z,90.20
2019-05-05T16:09:34.364Z,90.60
2019-05-05T16:12:03.773Z,91.30
2019-05-05T16:14:34.404Z,90.90
2019-05-05T16:17:07.378Z,89.60
2019-05-05T16:19:37.881Z,90.10
2019-05-05T16:22:14.567Z,88.60
2019-05-05T16:24:46.009Z,89.60
2019-05-05T16:27:21.687Z,87.70
2019-05-05T16:29:45.390Z,88.30
2019-05-05T16:32:21.666Z,89.50
2019-05-05T16:34:44.927Z,90.80
2019-05-05T16:37:14.317Z,90.10
2019-05-05T16:39:43.945Z,90.00
2019-05-05T16:42:13.571Z,89.20
2019-05-05T16:44:43.509Z,88.10
2019-05-05T16:47:13.633Z,90.00
2019-05-05T16:49:44.510Z,88.80
2019-05-05T16:52:14.785Z,90.10
2019-05-05T16:54:46.764Z,90.30
2019-05-05T16:57:15.610Z,90.40
2019-05-05T16:59:44.530Z,91.10
2019-05-05T17:02:13.926Z,91.50
2019-05-05T17:04:43.346Z,90.30
2019-05-05T17:07:14.155Z,90.20
2019-05-05T17:09:43.682Z,89.20
2019-05-05T17:12:14.145Z,88.30
2019-05-05T17:15:01.021Z,88.00
2019-05-05T17:17:34.230Z,89.80
2019-05-05T17:20:04.796Z,89.70
2019-05-05T17:22:35.309Z,89.80
2019-05-05T17:25:05.534Z,88.70
2019-05-05T17:27:47.398Z,89.30
2019-05-05T17:30:06.768Z,88.80
2019-05-05T17:32:35.589Z,86.20
2019-05-05T17:35:05.160Z,87.00
2019-05-05T17:37:34.019Z,87.50
2019-05-05T17:40:13.365Z,86.20
2019-05-05T17:42:57.989Z,85.20
2019-05-05T17:45:30.750Z,85.40
2019-05-05T17:48:01.174Z,85.80
2019-05-05T17:50:48.002Z,85.70
2019-05-05T17:53:23.453Z,87.40
2019-05-05T17:55:53.350Z,87.40
2019-05-05T17:58:22.100Z,86.30
2019-05-05T18:00:54.217Z,86.90
2019-05-05T18:03:23.004Z,87.80
2019-05-05T18:06:03.115Z,86.60
2019-05-05T18:08:38.098Z,86.40
2019-05-05T18:11:16.882Z,85.80
2019-05-05T18:13:49.046Z,86.30
2019-05-05T18:16:19.449Z,86.20
2019-05-05T18:18:48.226Z,84.30
2019-05-05T18:21:17.152Z,84.50
2019-05-05T18:23:45.878Z,85.50
2019-05-05T18:26:14.831Z,85.00
2019-05-05T18:28:44.748Z,84.30
2019-05-05T18:31:16.097Z,84.30
2019-05-05T18:33:44.946Z,84.10
2019-05-05T18:36:14.181Z,85.90
2019-05-05T18:38:44.515Z,84.60
2019-05-05T18:41:15.130Z,84.10
2019-05-05T18:43:48.672Z,83.90
2019-05-05T18:46:17.485Z,83.50
2019-05-05T18:48:46.266Z,83.70
2019-05-05T18:51:16.221Z,84.90
2019-05-05T18:53:45.022Z,85.50
2019-05-05T18:56:14.402Z,86.40
2019-05-05T18:58:44.735Z,85.70
2019-05-05T19:01:17.873Z,87.90
2019-05-05T19:04:04.241Z,88.30
2019-05-05T19:06:37.575Z,87.80
2019-05-05T19:09:08.943Z,84.90
2019-05-05T19:11:37.845Z,88.00
2019-05-05T19:14:06.660Z,89.80
2019-05-05T19:16:35.519Z,90.60
2019-05-05T19:19:04.391Z,90.10
2019-05-05T19:21:37.311Z,87.90
2019-05-05T19:24:06.066Z,87.10
2019-05-05T19:26:34.843Z,85.20
2019-05-05T19:29:05.106Z,87.10
2019-05-05T19:31:36.274Z,87.60
2019-05-05T19:34:04.822Z,89.30
2019-05-05T19:36:34.313Z,90.10
2019-05-05T19:39:05.783Z,89.80
2019-05-05T19:41:34.854Z,90.00
2019-05-05T19:44:04.834Z,90.30
2019-05-05T19:46:51.483Z,90.60
2019-05-05T19:49:20.477Z,91.30
2019-05-05T19:51:49.977Z,91.80
2019-05-05T19:54:18.981Z,91.70
2019-05-05T19:56:48.599Z,91.70
2019-05-05T19:59:17.467Z,91.90
2019-05-05T20:01:46.430Z,91.80
2019-05-05T20:04:15.211Z,92.10
2019-05-05T20:06:44.296Z,92.10
2019-05-05T20:09:14.332Z,91.80
2019-05-05T20:11:43.844Z,91.00
2019-05-05T20:14:15.088Z,91.70
2019-05-05T20:17:01.455Z,91.10
2019-05-05T20:19:34.174Z,91.10
2019-05-05T20:22:02.817Z,90.80
2019-05-05T20:24:33.576Z,91.50
2019-05-05T20:27:04.501Z,91.90
2019-05-05T20:29:37.097Z,92.30
2019-05-05T20:32:04.461Z,92.30
2019-05-05T20:34:37.790Z,92.80
2019-05-05T20:37:08.286Z,92.70
2019-05-05T20:39:38.046Z,92.10
2019-05-05T20:42:08.187Z,92.00
2019-05-05T20:44:37.785Z,92.00
2019-05-05T20:47:06.955Z,92.50
2019-05-05T20:49:35.897Z,92.60
2019-05-05T20:52:04.723Z,92.50
2019-05-05T20:54:33.560Z,92.10
2019-05-05T20:57:04.178Z,91.40
2019-05-05T20:59:34.308Z,90.90
2019-05-05T21:02:04.441Z,90.80
2019-05-05T21:04:34.447Z,90.60
2019-05-05T21:07:04.388Z,89.10
2019-05-05T21:09:34.468Z,89.60
2019-05-05T21:12:04.725Z,89.60
2019-05-05T21:14:35.422Z,89.90
2019-05-05T21:17:04.392Z,89.80
2019-05-05T21:19:34.580Z,89.10
2019-05-05T21:22:22.071Z,89.30
2019-05-05T21:24:51.459Z,88.40
2019-05-05T21:27:20.283Z,88.60
2019-05-05T21:29:49.152Z,89.60
2019-05-05T21:32:17.985Z,88.80
2019-05-05T21:34:46.844Z,90.30
2019-05-05T21:37:15.587Z,90.40
2019-05-05T21:39:45.437Z,89.90
2019-05-05T21:42:14.403Z,88.30
2019-05-05T21:44:44.219Z,87.50
2019-05-05T21:47:14.151Z,87.60
2019-05-05T21:49:43.287Z,88.00
2019-05-05T21:52:19.574Z,87.70
2019-05-05T21:54:52.522Z,87.70
2019-05-05T21:57:39.062Z,88.20
2019-05-05T22:00:10.035Z,88.10
2019-05-05T22:02:38.790Z,89.00
2019-05-05T22:05:07.887Z,88.90
2019-05-05T22:07:36.735Z,90.30
2019-05-05T22:10:06.486Z,88.70
2019-05-05T22:12:36.260Z,88.20
2019-05-05T22:15:06.455Z,89.60
2019-05-05T22:17:36.298Z,90.90
2019-05-05T22:20:14.359Z,88.00
2019-05-05T22:22:45.035Z,88.50
2019-05-05T22:25:14.218Z,90.10
2019-05-05T22:27:44.100Z,90.70
2019-05-05T22:30:14.166Z,90.80
2019-05-05T22:32:44.143Z,89.60
2019-05-05T22:35:14.004Z,90.70
2019-05-05T22:37:44.007Z,91.40
2019-05-05T22:40:24.151Z,91.90
2019-05-05T22:42:52.022Z,92.30
2019-05-05T22:45:20.849Z,92.00
2019-05-05T22:47:49.690Z,92.00
2019-05-05T22:50:18.506Z,92.70
2019-05-05T22:52:47.407Z,93.10
2019-05-05T22:55:16.209Z,93.40
2019-05-05T22:57:45.238Z,93.40
2019-05-05T23:00:26.640Z,93.40
2019-05-05T23:02:54.848Z,93.20
2019-05-05T23:05:40.057Z,93.30
2019-05-05T23:08:08.822Z,93.40
2019-05-05T23:10:37.635Z,93.10
2019-05-05T23:13:06.538Z,93.00
2019-05-05T23:15:36.922Z,93.10
2019-05-05T23:18:13.278Z,93.10
2019-05-05T23:21:02.974Z,93.20
2019-05-05T23:23:39.153Z,93.40
2019-05-05T23:26:09.601Z,93.70
2019-05-05T23:28:38.370Z,93.60
2019-05-05T23:31:07.178Z,93.80
2019-05-05T23:33:35.930Z,93.50
2019-05-05T23:36:04.740Z,92.80
2019-05-05T23:38:34.832Z,92.40
2019-05-05T23:41:03.897Z,92.90
2019-05-05T23:43:34.525Z,93.30
2019-05-05T23:46:03.727Z,92.60
2019-05-05T23:48:34.734Z,92.80
2019-05-05T23:51:04.505Z,93.00
2019-05-05T23:53:34.445Z,92.90
2019-05-05T23:56:03.986Z,92.80
2019-05-05T23:58:34.633Z,92.60
